createdAt,value
2023-05-22T00:55:15.270Z,64.00
2023-05-22T00:57:45.729Z,63.40
2023-05-22T01:00:15.950Z,64.60
2023-05-22T01:02:45.911Z,65.00
2023-05-22T01:05:19.807Z,64.30
2023-05-22T01:07:49.646Z,64.60
2023-05-22T01:10:19.277Z,64.10
2023-05-22T01:13:10.260Z,63.70
2023-05-22T01:15:50.637Z,63.80
2023-05-22T01:18:31.096Z,63.10
2023-05-22T01:21:12.049Z,61.60
2023-05-22T01:23:44.837Z,61.30
2023-05-22T01:26:20.439Z,60.30
2023-05-22T01:28:59.099Z,59.80
2023-05-22T01:31:29.768Z,58.70
2023-05-22T01:34:00.433Z,58.50
2023-05-22T01:36:32.738Z,58.50
2023-05-22T01:39:03.349Z,58.50
2023-05-22T01:41:33.094Z,58.20
2023-05-22T01:44:02.946Z,58.30
2023-05-22T01:46:33.027Z,57.50
2023-05-22T01:49:02.534Z,57.60
2023-05-22T01:51:50.778Z,57.60
2023-05-22T01:54:41.479Z,57.60
2023-05-22T01:57:18.402Z,57.20
2023-05-22T02:00:01.553Z,56.90
2023-05-22T02:02:31.717Z,56.40
2023-05-22T02:05:05.602Z,57.80
2023-05-22T02:07:36.227Z,57.70
2023-05-22T02:10:05.982Z,57.80
2023-05-22T02:12:36.239Z,57.40
2023-05-22T02:15:07.047Z,57.20
2023-05-22T02:17:43.147Z,57.30
2023-05-22T02:20:16.847Z,57.30
2023-05-22T02:22:47.453Z,56.80
2023-05-22T02:25:18.473Z,56.50
2023-05-22T02:27:49.004Z,55.70
2023-05-22T02:30:18.606Z,55.20
2023-05-22T02:32:48.681Z,55.20
2023-05-22T02:35:18.244Z,55.20
2023-05-22T02:37:48.035Z,53.70
2023-05-22T02:40:17.701Z,53.50
2023-05-22T02:42:47.264Z,53.50
2023-05-22T02:45:16.946Z,53.70
2023-05-22T02:47:46.495Z,50.10
2023-05-22T02:50:16.380Z,47.90
2023-05-22T02:52:46.984Z,47.70
2023-05-22T02:55:16.491Z,46.90
2023-05-22T02:57:46.670Z,46.80
2023-05-22T03:00:16.374Z,45.70
2023-05-22T03:02:45.919Z,46.50
2023-05-22T03:05:19.273Z,46.70
2023-05-22T03:07:49.026Z,46.90
2023-05-22T03:10:18.767Z,47.30
2023-05-22T03:12:48.383Z,47.70
2023-05-22T03:15:18.002Z,47.70
2023-05-22T03:17:47.788Z,48.20
2023-05-22T03:20:18.352Z,48.60
2023-05-22T03:22:48.042Z,48.20
2023-05-22T03:25:17.701Z,48.10
2023-05-22T03:27:47.347Z,47.70
2023-05-22T03:30:17.112Z,47.70
2023-05-22T03:32:46.712Z,48.10
2023-05-22T03:35:21.289Z,48.70
2023-05-22T03:37:50.823Z,49.60
2023-05-22T03:40:20.399Z,49.70
2023-05-22T03:42:51.150Z,50.30
2023-05-22T03:45:20.851Z,49.90
2023-05-22T03:47:50.620Z,50.40
2023-05-22T06:12:09.561Z,62.10
2023-05-22T06:14:39.039Z,62.30
2023-05-22T06:17:10.923Z,62.40
2023-05-22T06:19:40.410Z,62.40
2023-05-22T06:22:10.056Z,62.60
2023-05-22T06:24:39.738Z,62.80
2023-05-22T06:27:09.308Z,63.00
2023-05-22T06:29:38.769Z,63.30
2023-05-22T06:32:08.492Z,63.40
2023-05-22T06:34:38.087Z,63.60
2023-05-22T06:37:07.843Z,63.90
2023-05-22T06:39:37.602Z,64.20
2023-05-22T06:42:07.502Z,64.50
2023-05-22T06:44:37.006Z,64.80
2023-05-22T06:47:06.619Z,65.10
2023-05-22T06:49:36.166Z,65.50
2023-05-22T06:52:05.758Z,65.70
2023-05-22T06:54:36.602Z,66.10
2023-05-22T06:57:06.174Z,66.60
2023-05-22T06:59:35.703Z,66.60
2023-05-22T07:02:05.243Z,67.20
2023-05-22T07:04:37.750Z,67.20
2023-05-22T07:07:07.395Z,67.50
2023-05-22T07:09:36.886Z,67.70
2023-05-22T08:24:59.884Z,72.40
2023-05-22T08:27:29.769Z,72.50
2023-05-22T08:29:59.230Z,72.30
2023-05-22T08:32:29.309Z,72.70
2023-05-22T08:35:01.172Z,72.60
2023-05-22T08:37:30.629Z,72.90
2023-05-22T08:40:00.468Z,73.10
2023-05-22T08:42:30.407Z,72.90
2023-05-22T08:45:03.182Z,72.80
2023-05-22T08:47:35.828Z,73.00
2023-05-22T08:50:07.191Z,72.90
2023-05-22T08:52:43.778Z,73.00
2023-05-22T08:55:13.558Z,73.10
2023-05-22T08:57:44.227Z,73.80
2023-05-22T09:00:14.456Z,73.60
2023-05-22T09:02:44.335Z,73.80
2023-05-22T09:05:14.470Z,73.90
2023-05-22T09:07:44.135Z,74.00
2023-05-22T09:10:13.741Z,74.00
2023-05-22T09:13:02.268Z,74.10
2023-05-22T09:15:35.114Z,73.90
2023-05-22T09:18:08.212Z,74.20
2023-05-22T09:20:39.245Z,74.50
2023-05-22T09:23:22.722Z,74.40
2023-05-22T09:29:04.184Z,74.30
2023-05-22T09:31:35.706Z,74.60
2023-05-22T09:34:07.136Z,74.60
2023-05-22T09:36:38.394Z,74.70
2023-05-22T09:39:08.113Z,74.80
2023-05-22T09:41:41.238Z,74.60
2023-05-22T09:44:18.133Z,74.70
2023-05-22T09:46:49.762Z,74.70
2023-05-22T09:49:19.350Z,75.00
2023-05-22T09:51:49.635Z,74.90
2023-05-22T09:54:21.062Z,75.30
2023-05-22T09:56:51.850Z,75.50
2023-05-22T09:59:25.078Z,75.40
2023-05-22T10:01:55.439Z,75.50
2023-05-22T10:04:25.338Z,75.50
2023-05-22T10:06:58.710Z,75.60
2023-05-22T10:09:32.623Z,76.20
2023-05-22T10:12:05.966Z,75.70
2023-05-22T10:14:37.638Z,75.50
2023-05-22T10:17:11.035Z,75.70
2023-05-22T10:19:42.798Z,75.80
2023-05-22T10:22:16.526Z,75.80
2023-05-22T10:24:48.223Z,76.00
2023-05-22T10:27:17.856Z,75.90
2023-05-22T10:29:55.229Z,75.60
2023-05-22T10:32:25.495Z,75.70
2023-05-22T10:35:10.230Z,75.80
2023-05-22T10:37:46.033Z,75.60
2023-05-22T10:40:18.419Z,75.80
2023-05-22T10:42:47.992Z,76.10
2023-05-22T10:45:18.595Z,76.40
2023-05-22T10:47:48.188Z,76.40
2023-05-22T10:50:20.215Z,76.60
2023-05-22T10:52:49.680Z,76.50
2023-05-22T10:55:24.850Z,76.50
2023-05-22T10:57:58.512Z,76.50
2023-05-22T11:00:28.095Z,76.60
2023-05-22T11:03:17.824Z,76.40
2023-05-22T11:05:54.363Z,76.40
2023-05-22T11:08:29.994Z,76.70
2023-05-22T11:11:03.501Z,76.50
2023-05-22T11:13:34.135Z,76.70
2023-05-22T11:16:06.569Z,76.80
2023-05-22T11:18:36.506Z,76.40
2023-05-22T11:21:07.766Z,76.40
2023-05-22T11:23:38.276Z,76.40
2023-05-22T11:26:25.609Z,76.60
2023-05-22T11:28:58.693Z,76.80
2023-05-22T11:31:29.236Z,76.70
2023-05-22T11:33:58.927Z,76.80
2023-05-22T11:36:30.432Z,76.80
2023-05-22T11:39:01.385Z,76.50
2023-05-22T11:41:37.062Z,76.70
2023-05-22T11:44:09.919Z,76.90
2023-05-22T11:46:42.763Z,76.90
2023-05-22T11:49:15.246Z,76.90
2023-05-22T11:51:45.382Z,76.90
2023-05-22T11:54:14.810Z,76.80
2023-05-22T11:56:44.237Z,76.80
2023-05-22T11:59:13.826Z,77.00
2023-05-22T12:01:43.640Z,76.70
2023-05-22T12:04:13.741Z,76.80
2023-05-22T12:06:43.853Z,76.70
2023-05-22T12:09:14.076Z,76.90
2023-05-22T12:11:47.121Z,77.00
2023-05-22T12:14:16.893Z,77.00
2023-05-22T12:16:46.859Z,77.10
2023-05-22T12:19:16.880Z,77.70
2023-05-22T12:21:48.375Z,77.60
2023-05-22T12:24:18.421Z,77.60
2023-05-22T12:26:51.796Z,78.30
2023-05-22T12:29:22.163Z,78.30
2023-05-22T12:31:52.269Z,78.00
2023-05-22T12:34:21.754Z,77.90
2023-05-22T12:36:51.576Z,77.70
2023-05-22T12:39:21.356Z,77.50
2023-05-22T12:41:50.764Z,77.80
2023-05-22T12:44:20.577Z,78.30
2023-05-22T12:46:50.483Z,78.40
2023-05-22T12:49:19.986Z,78.30
2023-05-22T12:51:50.333Z,78.60
2023-05-22T12:54:19.777Z,78.50
2023-05-22T12:56:49.193Z,78.80
2023-05-22T12:59:20.763Z,78.80
2023-05-22T13:01:50.417Z,78.60
2023-05-22T13:04:19.984Z,78.30
2023-05-22T13:06:49.810Z,78.20
2023-05-22T13:09:21.106Z,78.10
2023-05-22T13:11:51.220Z,78.00
2023-05-22T13:14:22.171Z,78.10
2023-05-22T13:16:52.067Z,78.80
2023-05-22T13:19:21.955Z,78.80
2023-05-22T13:21:51.477Z,79.00
2023-05-22T13:24:20.935Z,78.80
2023-05-22T13:26:50.823Z,78.90
2023-05-22T13:29:20.224Z,79.20
2023-05-22T13:31:49.661Z,78.80
2023-05-22T13:34:19.143Z,78.50
2023-05-22T13:36:48.735Z,78.80
2023-05-22T13:39:18.252Z,79.20
2023-05-22T13:41:48.091Z,79.20
2023-05-22T13:44:17.649Z,79.20
2023-05-22T13:46:47.181Z,79.50
2023-05-22T13:49:16.625Z,79.70
2023-05-22T13:51:46.145Z,79.70
2023-05-22T13:54:15.588Z,79.80
2023-05-22T13:56:45.034Z,79.50
2023-05-22T13:59:14.511Z,79.30
2023-05-22T14:01:43.959Z,79.00
2023-05-22T14:04:13.415Z,79.00
2023-05-22T14:06:42.903Z,78.90
2023-05-22T14:09:13.527Z,78.90
2023-05-22T14:11:43.138Z,79.00
2023-05-22T14:14:12.626Z,78.70
2023-05-22T14:16:42.168Z,78.70
2023-05-22T14:19:11.678Z,78.60
2023-05-22T14:21:41.139Z,78.80
2023-05-22T14:24:10.577Z,78.90
2023-05-22T14:26:40.791Z,79.10
2023-05-22T14:29:10.465Z,79.00
2023-05-22T14:31:51.204Z,79.30
2023-05-22T14:34:21.419Z,79.40
2023-05-22T14:36:51.522Z,79.50
2023-05-22T14:39:20.918Z,79.70
2023-05-22T14:41:50.371Z,80.00
2023-05-22T14:44:21.049Z,80.00
2023-05-22T14:46:51.413Z,79.80
2023-05-22T14:49:20.865Z,79.50
2023-05-22T14:51:50.377Z,79.20
2023-05-22T14:54:20.785Z,79.20
2023-05-22T14:56:50.257Z,79.50
2023-05-22T14:59:20.169Z,79.40
2023-05-22T15:01:51.905Z,79.40
2023-05-22T15:04:21.812Z,79.30
2023-05-22T15:06:51.477Z,79.40
2023-05-22T15:09:20.915Z,79.10
2023-05-22T15:11:52.265Z,79.10
2023-05-22T15:14:23.256Z,79.10
2023-05-22T15:16:52.723Z,79.30
2023-05-22T15:19:22.247Z,79.50
2023-05-22T15:21:52.248Z,79.90
2023-05-22T15:24:21.922Z,80.00
2023-05-22T15:26:51.732Z,80.20
2023-05-22T15:29:21.557Z,80.70
2023-05-22T15:31:51.054Z,81.00
2023-05-22T15:34:20.901Z,81.10
2023-05-22T15:36:50.317Z,81.30
2023-05-22T15:39:19.768Z,81.50
2023-05-22T15:41:58.335Z,81.50
2023-05-22T15:44:35.062Z,82.10
2023-05-22T15:47:05.018Z,82.10
2023-05-22T15:49:34.412Z,82.30
2023-05-22T15:52:04.363Z,82.30
2023-05-22T15:54:33.798Z,82.50
2023-05-22T15:57:03.200Z,82.60
2023-05-22T15:59:32.602Z,82.70
2023-05-22T16:02:02.572Z,83.10
2023-05-22T16:04:32.001Z,83.20
2023-05-22T16:07:01.415Z,83.30
2023-05-22T16:09:32.686Z,83.80
2023-05-22T16:12:02.263Z,84.20
2023-05-22T16:14:32.088Z,84.60
2023-05-22T16:17:01.983Z,84.90
2023-05-22T16:19:31.592Z,84.90
2023-05-22T16:22:01.653Z,84.90
2023-05-22T16:24:31.083Z,84.90
2023-05-22T16:27:01.845Z,84.80
2023-05-22T16:29:34.422Z,84.80
2023-05-22T16:32:03.974Z,84.80
2023-05-22T16:34:35.410Z,84.60
2023-05-22T16:37:05.283Z,84.80
2023-05-22T16:39:34.757Z,84.80
2023-05-22T16:42:04.201Z,84.70
2023-05-22T16:44:33.626Z,84.80
2023-05-22T16:47:03.061Z,84.70
2023-05-22T16:49:32.962Z,84.40
2023-05-22T16:52:02.768Z,84.30
2023-05-22T16:54:32.714Z,84.50
2023-05-22T16:57:02.666Z,84.50
2023-05-22T16:59:32.573Z,84.60
2023-05-22T17:02:02.207Z,84.80
2023-05-22T17:04:31.981Z,84.60
2023-05-22T17:07:01.366Z,84.00
2023-05-22T17:09:30.957Z,83.80
2023-05-22T17:12:00.373Z,83.90
2023-05-22T17:14:30.081Z,83.60
2023-05-22T17:16:59.902Z,82.90
2023-05-22T17:19:30.578Z,82.40
2023-05-22T17:22:00.536Z,82.30
2023-05-22T17:24:31.940Z,82.30
2023-05-22T17:27:01.709Z,82.30
2023-05-22T17:29:31.320Z,82.70
2023-05-22T17:32:01.073Z,82.40
2023-05-22T17:34:30.675Z,82.50
2023-05-22T17:37:00.928Z,82.60
2023-05-22T17:39:31.436Z,82.60
2023-05-22T17:42:00.941Z,83.00
2023-05-22T17:44:30.823Z,83.50
2023-05-22T17:47:00.239Z,83.60
2023-05-22T17:49:29.649Z,83.70
2023-05-22T17:51:59.075Z,83.90
2023-05-22T17:54:28.897Z,84.20
2023-05-22T17:56:58.707Z,84.20
2023-05-22T17:59:28.133Z,84.10
2023-05-22T18:01:57.551Z,84.00
2023-05-22T18:04:27.012Z,83.90
2023-05-22T18:06:56.497Z,84.10
2023-05-22T18:09:26.025Z,84.30
2023-05-22T18:11:55.422Z,84.20
2023-05-22T18:14:24.866Z,84.20
2023-05-22T18:16:54.264Z,84.10
2023-05-22T18:19:23.803Z,84.00
2023-05-22T18:21:55.352Z,84.00
2023-05-22T18:24:27.730Z,84.00
2023-05-22T18:26:57.379Z,84.00
2023-05-22T18:29:26.817Z,84.00
2023-05-22T18:31:56.375Z,83.90
2023-05-22T18:34:25.916Z,83.90
2023-05-22T18:36:55.409Z,83.90
2023-05-22T18:39:24.932Z,84.00
2023-05-22T18:41:54.514Z,83.90
2023-05-22T18:44:24.971Z,84.10
2023-05-22T18:46:54.491Z,84.00
2023-05-22T18:49:24.070Z,84.00
2023-05-22T18:51:53.480Z,84.00
2023-05-22T18:54:23.066Z,84.10
2023-05-22T18:56:52.696Z,84.10
2023-05-22T18:59:22.313Z,84.00
2023-05-22T19:01:52.267Z,84.10
2023-05-22T19:04:21.772Z,84.20
2023-05-22T19:06:51.211Z,84.00
2023-05-22T19:09:20.643Z,83.90
2023-05-22T19:11:50.088Z,83.80
2023-05-22T19:14:20.585Z,83.90
2023-05-22T19:16:50.630Z,84.00
2023-05-22T19:19:20.291Z,83.90
2023-05-22T19:21:50.230Z,83.80
2023-05-22T19:24:20.040Z,83.80
2023-05-22T19:26:49.518Z,83.80
2023-05-22T19:29:19.143Z,83.90
2023-05-22T19:31:48.596Z,84.10
2023-05-22T19:34:18.049Z,83.90
2023-05-22T19:36:47.789Z,84.10
2023-05-22T19:39:17.256Z,84.20
2023-05-22T19:41:46.683Z,84.40
2023-05-22T19:44:16.108Z,84.40
2023-05-22T19:46:45.612Z,84.40
2023-05-22T19:49:15.198Z,84.50
2023-05-22T19:51:45.147Z,84.60
2023-05-22T19:54:14.567Z,84.50
2023-05-22T19:56:43.981Z,84.50
2023-05-22T19:59:13.429Z,84.60
2023-05-22T20:01:42.902Z,84.60
2023-05-22T20:04:12.561Z,84.40
2023-05-22T20:06:42.142Z,84.30
2023-05-22T20:09:11.627Z,84.20
2023-05-22T20:11:41.443Z,84.10
2023-05-22T20:14:11.472Z,84.20
2023-05-22T20:16:40.983Z,84.20
2023-05-22T20:19:10.666Z,84.00
2023-05-22T20:21:40.208Z,84.10
2023-05-22T20:24:19.106Z,84.10
2023-05-22T20:26:48.864Z,84.20
2023-05-22T20:29:18.548Z,84.10
2023-05-22T20:31:48.235Z,83.90
2023-05-22T20:34:17.761Z,84.10
2023-05-22T20:36:48.612Z,84.30
2023-05-22T20:39:19.643Z,84.20
2023-05-22T20:41:51.454Z,84.10
2023-05-22T20:44:25.182Z,84.00
2023-05-22T20:46:55.065Z,84.20
2023-05-22T20:49:25.018Z,84.10
2023-05-22T20:51:55.932Z,84.10
2023-05-22T20:54:25.341Z,84.10
2023-05-22T20:56:56.316Z,84.00
2023-05-22T20:59:25.684Z,84.00
2023-05-22T21:01:55.151Z,83.80
2023-05-22T21:04:25.130Z,83.60
2023-05-22T21:06:54.983Z,83.60
2023-05-22T21:09:24.361Z,83.40
2023-05-22T21:11:53.773Z,83.40
2023-05-22T21:14:23.237Z,83.50
2023-05-22T21:16:53.061Z,83.70
2023-05-22T21:19:22.794Z,83.90
2023-05-22T21:21:52.234Z,84.00
2023-05-22T21:24:23.566Z,84.00
2023-05-22T21:26:52.964Z,84.10
2023-05-22T21:29:22.587Z,84.10
2023-05-22T21:31:52.220Z,84.10
2023-05-22T21:34:22.203Z,84.40
2023-05-22T21:36:52.498Z,84.50
2023-05-22T21:39:21.918Z,84.70
2023-05-22T21:41:51.378Z,85.00
2023-05-22T21:44:20.844Z,85.10
2023-05-22T21:46:50.281Z,85.00
2023-05-22T21:49:19.843Z,85.10
2023-05-22T21:51:49.286Z,84.90
2023-05-22T21:54:18.695Z,84.80
2023-05-22T21:56:48.139Z,84.70
2023-05-22T21:59:17.789Z,84.50
2023-05-22T22:01:47.274Z,84.40
2023-05-22T22:04:16.772Z,84.50
2023-05-22T22:06:46.261Z,85.00
2023-05-22T22:09:15.676Z,85.10
2023-05-22T22:11:45.077Z,85.10
2023-05-22T22:14:14.556Z,85.20
2023-05-22T22:16:47.105Z,85.30
2023-05-22T22:19:17.328Z,85.20
2023-05-22T22:21:47.563Z,85.10
2023-05-22T22:24:17.455Z,85.00
2023-05-22T22:26:47.416Z,85.10
2023-05-22T22:29:17.177Z,85.30
2023-05-22T22:31:46.885Z,85.30
2023-05-22T22:34:17.067Z,85.10
2023-05-22T22:36:46.601Z,84.90
2023-05-22T22:39:16.554Z,84.60
2023-05-22T22:41:46.023Z,84.30
2023-05-22T22:44:15.521Z,84.40
2023-05-22T22:46:45.822Z,84.60
2023-05-22T22:49:16.610Z,84.80
2023-05-22T22:51:46.509Z,85.50
2023-05-22T22:54:16.866Z,85.60
2023-05-22T22:56:48.450Z,85.80
2023-05-22T22:59:18.265Z,85.90
2023-05-22T23:01:47.971Z,85.80
2023-05-22T23:04:17.606Z,85.60
2023-05-22T23:06:47.831Z,85.40
2023-05-22T23:09:17.350Z,85.30
2023-05-22T23:11:46.947Z,85.20
2023-05-22T23:14:16.581Z,85.00
2023-05-22T23:16:46.391Z,84.80
2023-05-22T23:19:15.987Z,84.70
2023-05-22T23:21:45.551Z,84.80
2023-05-22T23:24:15.025Z,84.70
2023-05-22T23:26:44.570Z,84.50
2023-05-22T23:29:14.189Z,84.20
2023-05-22T23:31:44.040Z,83.80
2023-05-22T23:34:13.903Z,83.60
2023-05-22T23:36:43.452Z,83.30
2023-05-22T23:39:13.088Z,83.60
2023-05-22T23:41:43.877Z,84.10
2023-05-22T23:44:13.885Z,84.40
2023-05-22T23:46:44.144Z,84.10
2023-05-22T23:49:13.669Z,83.90
2023-05-22T23:51:43.214Z,84.00
2023-05-22T23:54:13.019Z,84.00
2023-05-22T23:56:42.523Z,83.80
2023-05-22T23:59:12.555Z,83.80
